sensor_id;sensor_type;location;lat;lon;timestamp;pressure;altitude;pressure_sealevel;temperature;humidity
76603;BME280;65075;48.390;17.598;2023-04-16T00:00:41;99448.16;;;13.22;54.56
76603;BME280;65075;48.390;17.598;2023-04-16T00:03:06;99429.28;;;12.58;56.49
76603;BME280;65075;48.390;17.598;2023-04-16T00:05:32;99401.34;;;11.73;57.84
76603;BME280;65075;48.390;17.598;2023-04-16T00:07:58;99408.84;;;11.42;59.14
76603;BME280;65075;48.390;17.598;2023-04-16T00:10:23;99433.72;;;12.49;56.67
76603;BME280;65075;48.390;17.598;2023-04-16T00:12:49;99428.34;;;11.16;60.99
76603;BME280;65075;48.390;17.598;2023-04-16T00:15:14;99440.03;;;11.16;61.66
76603;BME280;65075;48.390;17.598;2023-04-16T00:17:40;99381.66;;;11.76;58.31
76603;BME280;65075;48.390;17.598;2023-04-16T00:20:06;99442.06;;;12.29;58.37
76603;BME280;65075;48.390;17.598;2023-04-16T00:22:33;99435.00;;;12.56;56.84
76603;BME280;65075;48.390;17.598;2023-04-16T00:24:58;99443.28;;;11.38;59.41
76603;BME280;65075;48.390;17.598;2023-04-16T00:27:24;99443.28;;;12.13;58.88
76603;BME280;65075;48.390;17.598;2023-04-16T00:29:50;99450.91;;;12.11;58.94
76603;BME280;65075;48.390;17.598;2023-04-16T00:32:15;99421.69;;;12.45;56.51
76603;BME280;65075;48.390;17.598;2023-04-16T00:34:41;99439.00;;;13.32;55.70
76603;BME280;65075;48.390;17.598;2023-04-16T00:37:06;99446.00;;;13.43;55.47
76603;BME280;65075;48.390;17.598;2023-04-16T00:39:32;99445.84;;;13.58;54.17
76603;BME280;65075;48.390;17.598;2023-04-16T00:41:57;99443.69;;;13.55;54.49
76603;BME280;65075;48.390;17.598;2023-04-16T00:44:23;99446.59;;;13.40;55.15
76603;BME280;65075;48.390;17.598;2023-04-16T00:46:49;99403.56;;;13.40;54.71
76603;BME280;65075;48.390;17.598;2023-04-16T00:49:16;99438.88;;;13.89;54.04
76603;BME280;65075;48.390;17.598;2023-04-16T00:51:41;99380.19;;;13.48;52.92
76603;BME280;65075;48.390;17.598;2023-04-16T00:54:07;99455.53;;;13.74;53.93
76603;BME280;65075;48.390;17.598;2023-04-16T00:56:34;99456.47;;;14.07;53.54
76603;BME280;65075;48.390;17.598;2023-04-16T00:59:00;99447.41;;;12.83;55.32
76603;BME280;65075;48.390;17.598;2023-04-16T01:01:26;99467.00;;;13.29;55.86
76603;BME280;65075;48.390;17.598;2023-04-16T01:03:52;99450.41;;;13.44;53.89
76603;BME280;65075;48.390;17.598;2023-04-16T01:06:17;99464.56;;;13.51;54.54
76603;BME280;65075;48.390;17.598;2023-04-16T01:08:43;99470.81;;;13.56;54.59
76603;BME280;65075;48.390;17.598;2023-04-16T01:11:09;99440.91;;;13.02;56.21
76603;BME280;65075;48.390;17.598;2023-04-16T01:13:35;99474.97;;;12.91;56.88
76603;BME280;65075;48.390;17.598;2023-04-16T01:16:11;99467.66;;;13.68;54.70
76603;BME280;65075;48.390;17.598;2023-04-16T01:18:37;99451.94;;;12.97;56.10
76603;BME280;65075;48.390;17.598;2023-04-16T01:21:04;99474.88;;;13.01;56.53
76603;BME280;65075;48.390;17.598;2023-04-16T01:23:30;99471.06;;;12.30;58.22
76603;BME280;65075;48.390;17.598;2023-04-16T01:25:55;99467.78;;;12.33;58.03
76603;BME280;65075;48.390;17.598;2023-04-16T01:28:21;99476.28;;;12.26;59.22
76603;BME280;65075;48.390;17.598;2023-04-16T01:30:47;99474.41;;;13.28;55.73
76603;BME280;65075;48.390;17.598;2023-04-16T01:33:13;99485.28;;;13.33;55.52
76603;BME280;65075;48.390;17.598;2023-04-16T01:35:40;99479.69;;;13.19;55.33
76603;BME280;65075;48.390;17.598;2023-04-16T01:38:07;99476.22;;;11.67;60.22
76603;BME280;65075;48.390;17.598;2023-04-16T01:40:34;99481.78;;;10.21;65.44
76603;BME280;65075;48.390;17.598;2023-04-16T01:43:00;99444.34;;;9.29;69.29
76603;BME280;65075;48.390;17.598;2023-04-16T01:45:25;99468.72;;;9.56;68.32
76603;BME280;65075;48.390;17.598;2023-04-16T01:47:51;99482.91;;;12.10;60.91
76603;BME280;65075;48.390;17.598;2023-04-16T01:50:18;99480.38;;;11.55;61.41
76603;BME280;65075;48.390;17.598;2023-04-16T01:52:43;99479.34;;;13.26;56.88
76603;BME280;65075;48.390;17.598;2023-04-16T01:55:09;99496.22;;;13.09;56.88
76603;BME280;65075;48.390;17.598;2023-04-16T01:57:35;99494.75;;;13.93;54.10
76603;BME280;65075;48.390;17.598;2023-04-16T02:00:02;99490.34;;;13.97;54.49
76603;BME280;65075;48.390;17.598;2023-04-16T02:02:28;99494.19;;;13.96;53.78
76603;BME280;65075;48.390;17.598;2023-04-16T02:04:54;99478.28;;;12.54;56.64
76603;BME280;65075;48.390;17.598;2023-04-16T02:07:23;99481.34;;;11.94;60.25
76603;BME280;65075;48.390;17.598;2023-04-16T02:09:49;99490.03;;;12.11;59.93
76603;BME280;65075;48.390;17.598;2023-04-16T02:12:15;99452.13;;;12.38;58.92
76603;BME280;65075;48.390;17.598;2023-04-16T02:14:41;99489.28;;;13.46;55.77
76603;BME280;65075;48.390;17.598;2023-04-16T02:17:07;99471.19;;;13.45;55.03
76603;BME280;65075;48.390;17.598;2023-04-16T02:19:32;99462.66;;;11.37;61.03
76603;BME280;65075;48.390;17.598;2023-04-16T02:21:58;99488.81;;;12.71;58.16
76603;BME280;65075;48.390;17.598;2023-04-16T02:24:29;99474.09;;;12.62;57.33
76603;BME280;65075;48.390;17.598;2023-04-16T02:26:55;99490.44;;;12.38;58.47
76603;BME280;65075;48.390;17.598;2023-04-16T02:29:21;99477.75;;;12.47;57.66
76603;BME280;65075;48.390;17.598;2023-04-16T02:31:48;99483.88;;;12.78;57.64
76603;BME280;65075;48.390;17.598;2023-04-16T02:34:14;99490.34;;;13.97;54.00
76603;BME280;65075;48.390;17.598;2023-04-16T02:36:39;99489.94;;;14.27;52.40
76603;BME280;65075;48.390;17.598;2023-04-16T02:39:05;99485.56;;;12.69;57.19
76603;BME280;65075;48.390;17.598;2023-04-16T02:41:31;99484.00;;;13.26;55.24
76603;BME280;65075;48.390;17.598;2023-04-16T02:43:56;99492.59;;;11.92;59.24
76603;BME280;65075;48.390;17.598;2023-04-16T02:46:22;99479.22;;;12.35;57.73
76603;BME280;65075;48.390;17.598;2023-04-16T02:48:47;99461.03;;;12.54;56.79
76603;BME280;65075;48.390;17.598;2023-04-16T02:51:13;99501.22;;;11.10;61.82
76603;BME280;65075;48.390;17.598;2023-04-16T02:53:38;99485.81;;;11.65;61.84
76603;BME280;65075;48.390;17.598;2023-04-16T02:56:04;99479.69;;;10.99;61.01
76603;BME280;65075;48.390;17.598;2023-04-16T02:58:30;99498.91;;;12.37;58.64
76603;BME280;65075;48.390;17.598;2023-04-16T03:00:56;99492.94;;;11.61;60.79
76603;BME280;65075;48.390;17.598;2023-04-16T03:03:21;99460.00;;;10.97;62.75
76603;BME280;65075;48.390;17.598;2023-04-16T03:05:47;99495.44;;;12.65;58.22
76603;BME280;65075;48.390;17.598;2023-04-16T03:08:13;99495.47;;;13.33;55.49
76603;BME280;65075;48.390;17.598;2023-04-16T03:10:38;99505.13;;;12.47;56.95
76603;BME280;65075;48.390;17.598;2023-04-16T03:13:05;99491.56;;;11.63;60.08
76603;BME280;65075;48.390;17.598;2023-04-16T03:15:31;99510.78;;;11.33;61.05
76603;BME280;65075;48.390;17.598;2023-04-16T03:17:57;99508.88;;;13.34;55.48
76603;BME280;65075;48.390;17.598;2023-04-16T03:20:23;99518.59;;;12.39;57.68
76603;BME280;65075;48.390;17.598;2023-04-16T03:22:49;99504.72;;;10.35;63.68
76603;BME280;65075;48.390;17.598;2023-04-16T03:25:17;99523.38;;;12.62;58.04
76603;BME280;65075;48.390;17.598;2023-04-16T03:27:43;99516.97;;;12.38;58.30
76603;BME280;65075;48.390;17.598;2023-04-16T03:30:12;99519.75;;;13.10;56.42
76603;BME280;65075;48.390;17.598;2023-04-16T03:32:39;99516.00;;;13.59;54.39
76603;BME280;65075;48.390;17.598;2023-04-16T03:35:06;99534.19;;;13.50;54.60
76603;BME280;65075;48.390;17.598;2023-04-16T03:37:32;99550.72;;;13.40;55.31
76603;BME280;65075;48.390;17.598;2023-04-16T03:39:58;99545.19;;;13.73;54.13
76603;BME280;65075;48.390;17.598;2023-04-16T03:42:24;99486.63;;;13.36;53.98
76603;BME280;65075;48.390;17.598;2023-04-16T03:44:50;99547.03;;;13.26;55.63
76603;BME280;65075;48.390;17.598;2023-04-16T03:47:17;99553.66;;;13.48;54.81
76603;BME280;65075;48.390;17.598;2023-04-16T03:49:42;99562.78;;;12.66;58.12
76603;BME280;65075;48.390;17.598;2023-04-16T03:52:08;99565.59;;;12.51;57.71
76603;BME280;65075;48.390;17.598;2023-04-16T03:54:33;99507.41;;;11.76;59.18
76603;BME280;65075;48.390;17.598;2023-04-16T03:56:59;99564.81;;;11.66;60.33
76603;BME280;65075;48.390;17.598;2023-04-16T03:59:25;99556.03;;;12.48;58.06
76603;BME280;65075;48.390;17.598;2023-04-16T04:01:50;99573.03;;;12.89;57.48
76603;BME280;65075;48.390;17.598;2023-04-16T04:04:16;99568.81;;;12.63;57.31
76603;BME280;65075;48.390;17.598;2023-04-16T04:06:44;99577.53;;;13.14;55.75
76603;BME280;65075;48.390;17.598;2023-04-16T04:09:10;99566.75;;;11.00;62.10
76603;BME280;65075;48.390;17.598;2023-04-16T04:11:36;99586.41;;;13.35;56.07
76603;BME280;65075;48.390;17.598;2023-04-16T04:14:01;99575.38;;;12.62;58.09
76603;BME280;65075;48.390;17.598;2023-04-16T04:16:27;99582.91;;;13.58;54.24
76603;BME280;65075;48.390;17.598;2023-04-16T04:18:52;99592.16;;;11.36;62.05
76603;BME280;65075;48.390;17.598;2023-04-16T04:21:19;99583.75;;;12.32;59.37
76603;BME280;65075;48.390;17.598;2023-04-16T04:23:45;99592.13;;;11.56;61.65
76603;BME280;65075;48.390;17.598;2023-04-16T04:26:11;99571.34;;;11.80;61.27
76603;BME280;65075;48.390;17.598;2023-04-16T04:28:36;99599.03;;;10.16;65.85
76603;BME280;65075;48.390;17.598;2023-04-16T04:31:02;99593.22;;;10.89;64.02
76603;BME280;65075;48.390;17.598;2023-04-16T04:33:28;99596.69;;;10.50;65.75
76603;BME280;65075;48.390;17.598;2023-04-16T04:35:54;99600.84;;;11.88;61.56
76603;BME280;65075;48.390;17.598;2023-04-16T04:38:20;99586.66;;;11.86;60.85
76603;BME280;65075;48.390;17.598;2023-04-16T04:40:50;99592.56;;;12.14;59.87
76603;BME280;65075;48.390;17.598;2023-04-16T04:43:17;99607.91;;;13.51;56.36
76603;BME280;65075;48.390;17.598;2023-04-16T04:45:43;99592.69;;;13.69;56.14
76603;BME280;65075;48.390;17.598;2023-04-16T04:48:08;99614.88;;;13.96;55.33
76603;BME280;65075;48.390;17.598;2023-04-16T04:50:35;99620.34;;;13.72;56.51
76603;BME280;65075;48.390;17.598;2023-04-16T04:53:01;99618.91;;;14.32;53.93
76603;BME280;65075;48.390;17.598;2023-04-16T04:55:26;99600.00;;;14.02;54.89
76603;BME280;65075;48.390;17.598;2023-04-16T04:57:52;99618.09;;;13.46;56.22
76603;BME280;65075;48.390;17.598;2023-04-16T05:00:17;99634.84;;;13.73;56.30
76603;BME280;65075;48.390;17.598;2023-04-16T05:02:49;99629.75;;;12.20;60.20
76603;BME280;65075;48.390;17.598;2023-04-16T05:05:16;99630.16;;;13.11;58.51
76603;BME280;65075;48.390;17.598;2023-04-16T05:07:41;99593.19;;;10.64;64.99
76603;BME280;65075;48.390;17.598;2023-04-16T05:10:07;99630.38;;;11.96;61.96
76603;BME280;65075;48.390;17.598;2023-04-16T05:12:33;99643.19;;;12.06;62.08
76603;BME280;65075;48.390;17.598;2023-04-16T05:14:59;99621.56;;;12.15;62.17
76603;BME280;65075;48.390;17.598;2023-04-16T05:17:24;99637.88;;;13.43;58.07
76603;BME280;65075;48.390;17.598;2023-04-16T05:19:51;99603.13;;;12.94;58.16
76603;BME280;65075;48.390;17.598;2023-04-16T05:22:16;99635.19;;;13.95;55.74
76603;BME280;65075;48.390;17.598;2023-04-16T05:24:43;99639.63;;;13.29;58.23
76603;BME280;65075;48.390;17.598;2023-04-16T05:27:09;99644.44;;;13.47;58.04
76603;BME280;65075;48.390;17.598;2023-04-16T05:29:35;99639.56;;;13.67;57.25
76603;BME280;65075;48.390;17.598;2023-04-16T05:32:01;99640.28;;;13.10;58.29
76603;BME280;65075;48.390;17.598;2023-04-16T05:34:26;99651.19;;;14.41;55.36
76603;BME280;65075;48.390;17.598;2023-04-16T05:36:52;99654.53;;;14.38;55.63
76603;BME280;65075;48.390;17.598;2023-04-16T05:39:17;99653.78;;;12.28;62.11
76603;BME280;65075;48.390;17.598;2023-04-16T05:41:44;99633.84;;;13.30;59.75
76603;BME280;65075;48.390;17.598;2023-04-16T05:44:09;99654.00;;;13.05;60.00
76603;BME280;65075;48.390;17.598;2023-04-16T05:46:35;99667.94;;;12.50;62.05
76603;BME280;65075;48.390;17.598;2023-04-16T05:49:00;99663.28;;;13.82;58.63
76603;BME280;65075;48.390;17.598;2023-04-16T05:51:26;99651.53;;;12.50;63.63
76603;BME280;65075;48.390;17.598;2023-04-16T05:53:52;99676.34;;;13.95;58.63
76603;BME280;65075;48.390;17.598;2023-04-16T05:56:17;99639.13;;;11.98;63.68
76603;BME280;65075;48.390;17.598;2023-04-16T05:58:43;99683.53;;;13.57;59.70
76603;BME280;65075;48.390;17.598;2023-04-16T06:01:10;99659.78;;;13.43;59.51
76603;BME280;65075;48.390;17.598;2023-04-16T06:03:35;99672.84;;;12.53;62.58
76603;BME280;65075;48.390;17.598;2023-04-16T06:06:01;99661.81;;;12.73;62.17
76603;BME280;65075;48.390;17.598;2023-04-16T06:08:26;99675.06;;;12.51;63.13
76603;BME280;65075;48.390;17.598;2023-04-16T06:10:52;99673.03;;;13.31;60.89
76603;BME280;65075;48.390;17.598;2023-04-16T06:13:17;99693.00;;;12.82;61.92
76603;BME280;65075;48.390;17.598;2023-04-16T06:15:43;99682.78;;;13.47;60.77
76603;BME280;65075;48.390;17.598;2023-04-16T06:18:09;99684.25;;;14.25;58.33
76603;BME280;65075;48.390;17.598;2023-04-16T06:20:34;99684.66;;;13.85;59.11
76603;BME280;65075;48.390;17.598;2023-04-16T06:23:00;99673.28;;;12.85;61.94
76603;BME280;65075;48.390;17.598;2023-04-16T06:25:26;99689.28;;;13.56;61.11
76603;BME280;65075;48.390;17.598;2023-04-16T06:27:51;99678.19;;;14.76;57.29
76603;BME280;65075;48.390;17.598;2023-04-16T06:30:17;99681.69;;;15.93;54.32
76603;BME280;65075;48.390;17.598;2023-04-16T06:32:44;99695.06;;;14.46;56.83
76603;BME280;65075;48.390;17.598;2023-04-16T06:35:11;99693.91;;;13.94;59.93
76603;BME280;65075;48.390;17.598;2023-04-16T06:37:37;99683.88;;;13.46;60.71
76603;BME280;65075;48.390;17.598;2023-04-16T06:40:03;99682.59;;;13.67;59.97
76603;BME280;65075;48.390;17.598;2023-04-16T06:42:28;99693.44;;;13.09;61.90
76603;BME280;65075;48.390;17.598;2023-04-16T06:44:54;99696.78;;;11.46;67.43
76603;BME280;65075;48.390;17.598;2023-04-16T06:47:20;99686.41;;;12.88;63.91
76603;BME280;65075;48.390;17.598;2023-04-16T06:49:45;99691.56;;;14.64;57.49
76603;BME280;65075;48.390;17.598;2023-04-16T06:52:11;99708.72;;;14.98;57.00
76603;BME280;65075;48.390;17.598;2023-04-16T06:54:37;99681.97;;;15.22;54.75
76603;BME280;65075;48.390;17.598;2023-04-16T06:57:02;99625.53;;;15.11;55.29
76603;BME280;65075;48.390;17.598;2023-04-16T06:59:28;99674.25;;;15.24;55.17
76603;BME280;65075;48.390;17.598;2023-04-16T07:01:54;99701.09;;;14.90;56.80
76603;BME280;65075;48.390;17.598;2023-04-16T07:04:19;99702.09;;;15.74;53.39
76603;BME280;65075;48.390;17.598;2023-04-16T07:06:45;99690.50;;;14.83;55.44
76603;BME280;65075;48.390;17.598;2023-04-16T07:09:11;99681.66;;;15.05;56.18
76603;BME280;65075;48.390;17.598;2023-04-16T07:11:36;99692.38;;;15.25;55.81
76603;BME280;65075;48.390;17.598;2023-04-16T07:14:02;99679.06;;;16.02;53.45
76603;BME280;65075;48.390;17.598;2023-04-16T07:16:28;99674.16;;;15.99;53.11
76603;BME280;65075;48.390;17.598;2023-04-16T07:18:53;99704.69;;;15.84;53.99
76603;BME280;65075;48.390;17.598;2023-04-16T07:21:21;99693.06;;;14.51;56.65
76603;BME280;65075;48.390;17.598;2023-04-16T07:23:46;99711.53;;;15.30;55.44
76603;BME280;65075;48.390;17.598;2023-04-16T07:26:12;99718.91;;;15.35;55.54
76603;BME280;65075;48.390;17.598;2023-04-16T07:28:37;99707.88;;;16.23;51.86
76603;BME280;65075;48.390;17.598;2023-04-16T07:31:03;99719.75;;;14.93;54.95
76603;BME280;65075;48.390;17.598;2023-04-16T07:33:28;99712.81;;;15.19;56.69
76603;BME280;65075;48.390;17.598;2023-04-16T07:35:55;99730.69;;;14.74;58.33
76603;BME280;65075;48.390;17.598;2023-04-16T07:38:21;99711.22;;;15.88;55.01
76603;BME280;65075;48.390;17.598;2023-04-16T07:40:46;99730.44;;;15.56;54.99
76603;BME280;65075;48.390;17.598;2023-04-16T07:43:12;99713.44;;;16.64;51.78
76603;BME280;65075;48.390;17.598;2023-04-16T07:45:39;99727.13;;;16.83;50.49
76603;BME280;65075;48.390;17.598;2023-04-16T07:48:06;99725.63;;;16.31;52.41
76603;BME280;65075;48.390;17.598;2023-04-16T07:50:31;99714.91;;;16.29;50.97
76603;BME280;65075;48.390;17.598;2023-04-16T07:52:57;99732.63;;;16.83;49.82
76603;BME280;65075;48.390;17.598;2023-04-16T07:55:22;99717.59;;;14.43;57.80
76603;BME280;65075;48.390;17.598;2023-04-16T07:57:48;99708.94;;;15.20;55.64
76603;BME280;65075;48.390;17.598;2023-04-16T08:00:13;99733.31;;;17.29;50.91
76603;BME280;65075;48.390;17.598;2023-04-16T08:02:40;99735.34;;;15.59;53.52
76603;BME280;65075;48.390;17.598;2023-04-16T08:05:06;99683.94;;;14.56;55.25
76603;BME280;65075;48.390;17.598;2023-04-16T08:07:32;99735.38;;;13.88;57.99
76603;BME280;65075;48.390;17.598;2023-04-16T08:09:57;99738.13;;;15.16;54.71
76603;BME280;65075;48.390;17.598;2023-04-16T08:12:23;99709.16;;;15.05;53.52
76603;BME280;65075;48.390;17.598;2023-04-16T08:14:49;99712.00;;;14.76;54.71
76603;BME280;65075;48.390;17.598;2023-04-16T08:17:15;99732.16;;;14.43;56.57
76603;BME280;65075;48.390;17.598;2023-04-16T08:19:42;99723.22;;;14.32;56.94
76603;BME280;65075;48.390;17.598;2023-04-16T08:22:10;99725.09;;;14.03;55.63
76603;BME280;65075;48.390;17.598;2023-04-16T08:24:36;99746.00;;;14.80;56.23
76603;BME280;65075;48.390;17.598;2023-04-16T08:27:02;99756.50;;;14.50;57.77
76603;BME280;65075;48.390;17.598;2023-04-16T08:29:27;99754.19;;;16.35;52.40
76603;BME280;65075;48.390;17.598;2023-04-16T08:31:53;99751.69;;;13.25;60.31
76603;BME280;65075;48.390;17.598;2023-04-16T08:34:19;99736.22;;;14.46;57.79
76603;BME280;65075;48.390;17.598;2023-04-16T08:36:45;99730.06;;;15.62;53.19
76603;BME280;65075;48.390;17.598;2023-04-16T08:39:10;99736.25;;;16.37;52.62
76603;BME280;65075;48.390;17.598;2023-04-16T08:41:40;99737.81;;;16.11;54.16
76603;BME280;65075;48.390;17.598;2023-04-16T08:44:10;99746.03;;;16.43;52.16
76603;BME280;65075;48.390;17.598;2023-04-16T08:46:40;99752.38;;;15.18;56.46
76603;BME280;65075;48.390;17.598;2023-04-16T08:49:07;99752.41;;;16.98;52.15
76603;BME280;65075;48.390;17.598;2023-04-16T08:51:34;99757.63;;;17.77;50.79
76603;BME280;65075;48.390;17.598;2023-04-16T08:54:07;99738.19;;;16.04;52.81
76603;BME280;65075;48.390;17.598;2023-04-16T08:56:35;99729.19;;;15.99;53.25
76603;BME280;65075;48.390;17.598;2023-04-16T08:59:02;99744.06;;;16.76;52.78
76603;BME280;65075;48.390;17.598;2023-04-16T09:01:34;99770.47;;;17.32;53.37
76603;BME280;65075;48.390;17.598;2023-04-16T09:04:00;99771.03;;;18.36;48.77
76603;BME280;65075;48.390;17.598;2023-04-16T09:06:27;99751.75;;;17.56;46.39
76603;BME280;65075;48.390;17.598;2023-04-16T09:08:53;99769.50;;;15.15;55.20
76603;BME280;65075;48.390;17.598;2023-04-16T09:11:19;99757.75;;;16.03;53.74
76603;BME280;65075;48.390;17.598;2023-04-16T09:13:46;99763.56;;;16.34;52.32
76603;BME280;65075;48.390;17.598;2023-04-16T09:16:13;99767.28;;;16.24;53.10
76603;BME280;65075;48.390;17.598;2023-04-16T09:18:38;99744.44;;;16.70;52.46
76603;BME280;65075;48.390;17.598;2023-04-16T09:21:04;99758.94;;;18.76;46.67
76603;BME280;65075;48.390;17.598;2023-04-16T09:23:32;99774.50;;;19.03;46.27
76603;BME280;65075;48.390;17.598;2023-04-16T09:25:58;99778.63;;;20.77;42.53
76603;BME280;65075;48.390;17.598;2023-04-16T09:28:47;99772.09;;;19.19;45.75
76603;BME280;65075;48.390;17.598;2023-04-16T09:31:15;99774.81;;;19.58;46.37
76603;BME280;65075;48.390;17.598;2023-04-16T09:33:43;99770.13;;;18.71;46.54
76603;BME280;65075;48.390;17.598;2023-04-16T09:36:25;99770.19;;;21.12;39.76
76603;BME280;65075;48.390;17.598;2023-04-16T09:38:52;99779.38;;;19.63;45.05
76603;BME280;65075;48.390;17.598;2023-04-16T09:41:19;99777.97;;;17.53;50.35
76603;BME280;65075;48.390;17.598;2023-04-16T09:46:19;99781.56;;;15.94;52.10
76603;BME280;65075;48.390;17.598;2023-04-16T09:48:45;99768.50;;;17.59;48.03
76603;BME280;65075;48.390;17.598;2023-04-16T09:51:11;99767.34;;;20.27;42.79
76603;BME280;65075;48.390;17.598;2023-04-16T09:53:38;99746.47;;;19.78;41.66
76603;BME280;65075;48.390;17.598;2023-04-16T09:56:07;99772.63;;;19.38;43.35
76603;BME280;65075;48.390;17.598;2023-04-16T09:58:36;99789.16;;;19.60;43.18
76603;BME280;65075;48.390;17.598;2023-04-16T10:01:10;99788.72;;;18.35;44.79
76603;BME280;65075;48.390;17.598;2023-04-16T10:03:38;99776.41;;;17.25;47.49
76603;BME280;65075;48.390;17.598;2023-04-16T10:06:17;99795.06;;;15.34;51.12
76603;BME280;65075;48.390;17.598;2023-04-16T10:08:53;99785.09;;;13.76;56.45
76603;BME280;65075;48.390;17.598;2023-04-16T10:11:22;99795.31;;;14.90;50.92
76603;BME280;65075;48.390;17.598;2023-04-16T10:13:48;99794.22;;;14.92;51.69
76603;BME280;65075;48.390;17.598;2023-04-16T10:16:15;99780.19;;;15.35;49.05
76603;BME280;65075;48.390;17.598;2023-04-16T10:18:42;99774.78;;;17.73;44.70
76603;BME280;65075;48.390;17.598;2023-04-16T10:21:09;99749.69;;;15.74;48.59
76603;BME280;65075;48.390;17.598;2023-04-16T10:23:40;99769.94;;;17.43;47.61
76603;BME280;65075;48.390;17.598;2023-04-16T10:26:06;99773.81;;;18.36;44.73
76603;BME280;65075;48.390;17.598;2023-04-16T10:28:32;99768.88;;;17.66;45.23
76603;BME280;65075;48.390;17.598;2023-04-16T10:31:04;99777.94;;;18.47;43.49
76603;BME280;65075;48.390;17.598;2023-04-16T10:33:34;99766.72;;;17.99;43.46
76603;BME280;65075;48.390;17.598;2023-04-16T10:36:13;99778.34;;;16.06;49.71
76603;BME280;65075;48.390;17.598;2023-04-16T10:38:57;99764.53;;;16.24;49.42
76603;BME280;65075;48.390;17.598;2023-04-16T10:41:25;99768.47;;;17.95;45.41
76603;BME280;65075;48.390;17.598;2023-04-16T10:43:51;99770.31;;;17.50;44.92
76603;BME280;65075;48.390;17.598;2023-04-16T10:46:25;99767.31;;;17.25;45.77
76603;BME280;65075;48.390;17.598;2023-04-16T10:48:59;99774.03;;;16.64;46.87
76603;BME280;65075;48.390;17.598;2023-04-16T10:51:33;99756.25;;;17.52;44.79
76603;BME280;65075;48.390;17.598;2023-04-16T10:56:39;99773.53;;;16.62;49.54
76603;BME280;65075;48.390;17.598;2023-04-16T10:59:06;99764.53;;;17.88;44.59
76603;BME280;65075;48.390;17.598;2023-04-16T11:01:37;99763.13;;;18.21;45.03
76603;BME280;65075;48.390;17.598;2023-04-16T11:06:59;99769.16;;;17.79;44.54
76603;BME280;65075;48.390;17.598;2023-04-16T11:12:41;99752.97;;;17.63;44.69
76603;BME280;65075;48.390;17.598;2023-04-16T11:15:10;99757.53;;;17.05;45.61
76603;BME280;65075;48.390;17.598;2023-04-16T11:17:42;99760.38;;;15.76;49.63
76603;BME280;65075;48.390;17.598;2023-04-16T11:20:16;99762.66;;;16.06;48.45
76603;BME280;65075;48.390;17.598;2023-04-16T11:22:42;99744.06;;;16.63;47.42
76603;BME280;65075;48.390;17.598;2023-04-16T11:25:09;99761.56;;;17.48;44.97
76603;BME280;65075;48.390;17.598;2023-04-16T11:27:35;99767.84;;;16.86;46.43
76603;BME280;65075;48.390;17.598;2023-04-16T11:30:04;99769.03;;;15.27;52.32
76603;BME280;65075;48.390;17.598;2023-04-16T11:32:35;99760.69;;;15.56;50.37
76603;BME280;65075;48.390;17.598;2023-04-16T11:35:23;99766.19;;;16.25;49.44
76603;BME280;65075;48.390;17.598;2023-04-16T11:37:48;99763.19;;;16.08;49.51
76603;BME280;65075;48.390;17.598;2023-04-16T11:40:14;99759.41;;;14.58;55.28
76603;BME280;65075;48.390;17.598;2023-04-16T11:42:40;99760.81;;;16.01;50.40
76603;BME280;65075;48.390;17.598;2023-04-16T11:45:08;99766.25;;;17.61;46.76
76603;BME280;65075;48.390;17.598;2023-04-16T11:47:50;99768.41;;;18.31;44.12
76603;BME280;65075;48.390;17.598;2023-04-16T11:50:25;99777.63;;;18.26;44.33
76603;BME280;65075;48.390;17.598;2023-04-16T11:52:54;99760.38;;;17.99;45.06
76603;BME280;65075;48.390;17.598;2023-04-16T11:55:23;99763.03;;;18.48;43.01
76603;BME280;65075;48.390;17.598;2023-04-16T11:57:49;99769.13;;;19.55;40.78
76603;BME280;65075;48.390;17.598;2023-04-16T12:00:15;99760.22;;;18.17;43.93
76603;BME280;65075;48.390;17.598;2023-04-16T12:03:01;99747.84;;;19.16;41.98
76603;BME280;65075;48.390;17.598;2023-04-16T12:05:31;99734.97;;;18.10;43.50
76603;BME280;65075;48.390;17.598;2023-04-16T12:08:01;99762.25;;;17.67;44.35
76603;BME280;65075;48.390;17.598;2023-04-16T12:10:29;99760.94;;;17.51;43.87
76603;BME280;65075;48.390;17.598;2023-04-16T12:13:12;99761.94;;;17.69;43.20
76603;BME280;65075;48.390;17.598;2023-04-16T12:15:46;99762.75;;;18.58;42.15
76603;BME280;65075;48.390;17.598;2023-04-16T12:18:12;99757.03;;;17.52;44.51
76603;BME280;65075;48.390;17.598;2023-04-16T12:20:39;99754.75;;;18.26;42.71
76603;BME280;65075;48.390;17.598;2023-04-16T12:23:09;99747.41;;;19.31;41.89
76603;BME280;65075;48.390;17.598;2023-04-16T12:25:35;99752.19;;;19.00;40.00
76603;BME280;65075;48.390;17.598;2023-04-16T12:28:02;99754.72;;;17.82;42.46
76603;BME280;65075;48.390;17.598;2023-04-16T12:30:29;99754.22;;;18.02;42.50
76603;BME280;65075;48.390;17.598;2023-04-16T12:33:19;99741.25;;;18.55;42.44
76603;BME280;65075;48.390;17.598;2023-04-16T12:35:45;99747.78;;;19.55;38.45
76603;BME280;65075;48.390;17.598;2023-04-16T12:38:11;99758.59;;;18.47;40.41
76603;BME280;65075;48.390;17.598;2023-04-16T12:40:39;99750.59;;;18.37;40.75
76603;BME280;65075;48.390;17.598;2023-04-16T12:43:05;99746.19;;;17.69;42.31
76603;BME280;65075;48.390;17.598;2023-04-16T12:45:31;99745.91;;;18.46;41.26
76603;BME280;65075;48.390;17.598;2023-04-16T12:47:59;99722.97;;;17.93;42.12
76603;BME280;65075;48.390;17.598;2023-04-16T12:50:26;99753.19;;;18.42;42.06
76603;BME280;65075;48.390;17.598;2023-04-16T12:52:54;99709.50;;;17.91;41.43
76603;BME280;65075;48.390;17.598;2023-04-16T12:55:20;99728.16;;;18.39;41.33
76603;BME280;65075;48.390;17.598;2023-04-16T12:57:48;99722.00;;;16.90;44.81
76603;BME280;65075;48.390;17.598;2023-04-16T13:00:14;99746.97;;;18.06;43.85